Terminal Aerodrome Forecast
Issued by NWS

Home | Current Version | Previous Version | Text Only | Print | Product List | Glossary On
Versions: 1 2 3 4 5 6 7 8 9 10 11 12 13 14 15 16 17
000
FTUS43 KPAH 181000 AAA
TAFCGI
TAF AMD
KCGI 181001Z 1810/1906 32004KT 4SM BR FEW250
     FM181400 35010G16KT P6SM SCT040
     FM182300 01004KT P6SM SKC=

USA.gov is the U.S. government's official web portal to all federal, state and local government web resources and services.